sensor_id;sensor_type;location;lat;lon;timestamp;temperature;humidity
60287;DHT22;46141;52.382;5.270;2023-03-14T00:00:14;20.30;65.50
60287;DHT22;46141;52.382;5.270;2023-03-14T00:02:40;20.30;65.30
60287;DHT22;46141;52.382;5.270;2023-03-14T00:05:07;20.30;65.40
60287;DHT22;46141;52.382;5.270;2023-03-14T00:07:35;20.20;65.30
60287;DHT22;46141;52.382;5.270;2023-03-14T00:10:07;20.20;65.40
60287;DHT22;46141;52.382;5.270;2023-03-14T00:12:33;20.20;65.50
60287;DHT22;46141;52.382;5.270;2023-03-14T00:14:59;20.20;65.40
60287;DHT22;46141;52.382;5.270;2023-03-14T00:17:26;20.20;65.30
60287;DHT22;46141;52.382;5.270;2023-03-14T00:19:52;20.20;65.40
60287;DHT22;46141;52.382;5.270;2023-03-14T00:22:20;20.20;65.40
60287;DHT22;46141;52.382;5.270;2023-03-14T00:24:45;20.10;65.40
60287;DHT22;46141;52.382;5.270;2023-03-14T00:27:11;20.10;65.50
60287;DHT22;46141;52.382;5.270;2023-03-14T00:29:37;20.10;65.50
60287;DHT22;46141;52.382;5.270;2023-03-14T00:32:02;20.10;65.40
60287;DHT22;46141;52.382;5.270;2023-03-14T00:34:29;20.10;65.60
60287;DHT22;46141;52.382;5.270;2023-03-14T00:36:57;20.00;65.50
60287;DHT22;46141;52.382;5.270;2023-03-14T00:39:23;20.00;65.50
60287;DHT22;46141;52.382;5.270;2023-03-14T00:41:49;20.00;65.30
60287;DHT22;46141;52.382;5.270;2023-03-14T00:44:14;20.00;65.40
60287;DHT22;46141;52.382;5.270;2023-03-14T00:46:40;20.00;65.30
60287;DHT22;46141;52.382;5.270;2023-03-14T00:49:06;20.00;65.30
60287;DHT22;46141;52.382;5.270;2023-03-14T00:51:31;20.00;65.30
60287;DHT22;46141;52.382;5.270;2023-03-14T00:53:57;20.00;65.20
60287;DHT22;46141;52.382;5.270;2023-03-14T00:56:23;20.00;65.20
60287;DHT22;46141;52.382;5.270;2023-03-14T00:58:48;20.00;65.10
60287;DHT22;46141;52.382;5.270;2023-03-14T01:01:17;20.00;65.10
60287;DHT22;46141;52.382;5.270;2023-03-14T01:03:43;19.90;65.10
60287;DHT22;46141;52.382;5.270;2023-03-14T01:06:19;19.90;65.00
60287;DHT22;46141;52.382;5.270;2023-03-14T01:08:46;19.90;65.00
60287;DHT22;46141;52.382;5.270;2023-03-14T01:11:15;19.90;65.10
60287;DHT22;46141;52.382;5.270;2023-03-14T01:13:41;19.90;65.00
60287;DHT22;46141;52.382;5.270;2023-03-14T01:16:09;19.90;65.10
60287;DHT22;46141;52.382;5.270;2023-03-14T01:18:35;19.90;65.10
60287;DHT22;46141;52.382;5.270;2023-03-14T01:21:03;19.90;65.00
60287;DHT22;46141;52.382;5.270;2023-03-14T01:23:29;19.90;65.00
60287;DHT22;46141;52.382;5.270;2023-03-14T01:25:54;19.90;65.00
60287;DHT22;46141;52.382;5.270;2023-03-14T01:28:20;19.90;65.00
60287;DHT22;46141;52.382;5.270;2023-03-14T01:30:46;19.90;65.00
60287;DHT22;46141;52.382;5.270;2023-03-14T01:33:11;19.80;65.00
60287;DHT22;46141;52.382;5.270;2023-03-14T01:35:39;19.80;65.00
60287;DHT22;46141;52.382;5.270;2023-03-14T01:38:05;19.80;65.00
60287;DHT22;46141;52.382;5.270;2023-03-14T01:40:31;19.80;65.00
60287;DHT22;46141;52.382;5.270;2023-03-14T01:43:12;19.80;64.90
60287;DHT22;46141;52.382;5.270;2023-03-14T01:51:25;19.80;65.20
60287;DHT22;46141;52.382;5.270;2023-03-14T01:54:01;19.80;65.20
60287;DHT22;46141;52.382;5.270;2023-03-14T01:56:28;19.70;65.10
60287;DHT22;46141;52.382;5.270;2023-03-14T01:58:55;19.70;65.20
60287;DHT22;46141;52.382;5.270;2023-03-14T02:01:25;19.70;65.10
60287;DHT22;46141;52.382;5.270;2023-03-14T02:03:54;19.70;65.20
60287;DHT22;46141;52.382;5.270;2023-03-14T02:06:27;19.70;65.40
60287;DHT22;46141;52.382;5.270;2023-03-14T02:08:55;19.70;65.40
60287;DHT22;46141;52.382;5.270;2023-03-14T02:11:22;19.70;65.30
60287;DHT22;46141;52.382;5.270;2023-03-14T02:13:51;19.70;65.30
60287;DHT22;46141;52.382;5.270;2023-03-14T02:16:18;19.70;65.30
60287;DHT22;46141;52.382;5.270;2023-03-14T02:18:43;19.70;65.50
60287;DHT22;46141;52.382;5.270;2023-03-14T02:29:02;19.60;65.60
60287;DHT22;46141;52.382;5.270;2023-03-14T02:31:28;19.60;65.50
60287;DHT22;46141;52.382;5.270;2023-03-14T02:33:55;19.60;65.50
60287;DHT22;46141;52.382;5.270;2023-03-14T02:36:23;19.60;65.50
60287;DHT22;46141;52.382;5.270;2023-03-14T02:38:58;19.60;65.40
60287;DHT22;46141;52.382;5.270;2023-03-14T02:41:26;19.60;65.40
60287;DHT22;46141;52.382;5.270;2023-03-14T02:43:52;19.60;65.30
60287;DHT22;46141;52.382;5.270;2023-03-14T02:46:20;19.60;65.40
60287;DHT22;46141;52.382;5.270;2023-03-14T02:48:51;19.60;65.30
60287;DHT22;46141;52.382;5.270;2023-03-14T02:51:17;19.50;65.10
60287;DHT22;46141;52.382;5.270;2023-03-14T02:53:43;19.50;65.30
60287;DHT22;46141;52.382;5.270;2023-03-14T02:56:09;19.50;65.20
60287;DHT22;46141;52.382;5.270;2023-03-14T02:58:36;19.50;65.20
60287;DHT22;46141;52.382;5.270;2023-03-14T03:01:02;19.50;65.20
60287;DHT22;46141;52.382;5.270;2023-03-14T03:03:28;19.50;65.20
60287;DHT22;46141;52.382;5.270;2023-03-14T03:05:56;19.50;65.30
60287;DHT22;46141;52.382;5.270;2023-03-14T03:08:24;19.40;65.30
60287;DHT22;46141;52.382;5.270;2023-03-14T03:10:52;19.50;65.20
60287;DHT22;46141;52.382;5.270;2023-03-14T03:13:18;19.50;65.10
60287;DHT22;46141;52.382;5.270;2023-03-14T03:15:45;19.40;65.10
60287;DHT22;46141;52.382;5.270;2023-03-14T03:18:11;19.50;65.10
60287;DHT22;46141;52.382;5.270;2023-03-14T03:20:36;19.50;65.10
60287;DHT22;46141;52.382;5.270;2023-03-14T03:23:02;19.40;65.00
60287;DHT22;46141;52.382;5.270;2023-03-14T03:25:28;19.40;65.10
60287;DHT22;46141;52.382;5.270;2023-03-14T03:27:54;19.40;65.10
60287;DHT22;46141;52.382;5.270;2023-03-14T03:30:20;19.40;65.00
60287;DHT22;46141;52.382;5.270;2023-03-14T03:32:47;19.40;65.00
60287;DHT22;46141;52.382;5.270;2023-03-14T03:35:12;19.40;65.10
60287;DHT22;46141;52.382;5.270;2023-03-14T03:37:39;19.40;65.00
60287;DHT22;46141;52.382;5.270;2023-03-14T03:40:06;19.30;65.00
60287;DHT22;46141;52.382;5.270;2023-03-14T03:42:33;19.40;65.10
60287;DHT22;46141;52.382;5.270;2023-03-14T03:45:00;19.30;65.00
60287;DHT22;46141;52.382;5.270;2023-03-14T03:47:26;19.30;65.00
60287;DHT22;46141;52.382;5.270;2023-03-14T03:49:52;19.30;65.00
60287;DHT22;46141;52.382;5.270;2023-03-14T03:52:18;19.30;64.90
60287;DHT22;46141;52.382;5.270;2023-03-14T03:54:45;19.30;64.90
60287;DHT22;46141;52.382;5.270;2023-03-14T03:57:12;19.30;64.90
60287;DHT22;46141;52.382;5.270;2023-03-14T03:59:38;19.30;64.90
60287;DHT22;46141;52.382;5.270;2023-03-14T04:02:05;19.30;64.90
60287;DHT22;46141;52.382;5.270;2023-03-14T04:04:31;19.30;64.90
60287;DHT22;46141;52.382;5.270;2023-03-14T04:06:57;19.30;64.90
60287;DHT22;46141;52.382;5.270;2023-03-14T04:09:23;19.20;64.90
60287;DHT22;46141;52.382;5.270;2023-03-14T04:11:48;19.20;64.80
60287;DHT22;46141;52.382;5.270;2023-03-14T04:14:14;19.20;64.80
60287;DHT22;46141;52.382;5.270;2023-03-14T04:16:40;19.20;64.80
60287;DHT22;46141;52.382;5.270;2023-03-14T04:19:05;19.20;64.90
60287;DHT22;46141;52.382;5.270;2023-03-14T04:21:31;19.20;64.80
60287;DHT22;46141;52.382;5.270;2023-03-14T04:23:56;19.20;64.90
60287;DHT22;46141;52.382;5.270;2023-03-14T04:26:22;19.20;65.00
60287;DHT22;46141;52.382;5.270;2023-03-14T04:28:48;19.10;64.80
60287;DHT22;46141;52.382;5.270;2023-03-14T04:31:16;19.10;64.80
60287;DHT22;46141;52.382;5.270;2023-03-14T04:33:44;19.10;64.90
60287;DHT22;46141;52.382;5.270;2023-03-14T04:36:09;19.10;64.90
60287;DHT22;46141;52.382;5.270;2023-03-14T04:38:35;19.10;64.80
60287;DHT22;46141;52.382;5.270;2023-03-14T04:41:02;19.10;64.80
60287;DHT22;46141;52.382;5.270;2023-03-14T04:43:28;19.10;64.80
60287;DHT22;46141;52.382;5.270;2023-03-14T04:45:54;19.10;64.80
60287;DHT22;46141;52.382;5.270;2023-03-14T04:48:20;19.10;64.80
60287;DHT22;46141;52.382;5.270;2023-03-14T04:50:46;19.10;64.80
60287;DHT22;46141;52.382;5.270;2023-03-14T04:53:13;19.10;64.90
60287;DHT22;46141;52.382;5.270;2023-03-14T04:55:39;19.10;64.80
60287;DHT22;46141;52.382;5.270;2023-03-14T04:58:04;19.10;64.80
60287;DHT22;46141;52.382;5.270;2023-03-14T05:00:31;19.00;64.80
60287;DHT22;46141;52.382;5.270;2023-03-14T05:02:57;19.00;64.80
60287;DHT22;46141;52.382;5.270;2023-03-14T05:05:23;19.00;64.80
60287;DHT22;46141;52.382;5.270;2023-03-14T05:07:48;19.00;64.80
60287;DHT22;46141;52.382;5.270;2023-03-14T05:10:14;19.00;64.80
60287;DHT22;46141;52.382;5.270;2023-03-14T05:12:40;19.00;64.80
60287;DHT22;46141;52.382;5.270;2023-03-14T05:15:06;19.00;64.70
60287;DHT22;46141;52.382;5.270;2023-03-14T05:17:35;19.00;64.90
60287;DHT22;46141;52.382;5.270;2023-03-14T05:20:01;19.00;64.80
60287;DHT22;46141;52.382;5.270;2023-03-14T05:22:32;19.00;64.80
60287;DHT22;46141;52.382;5.270;2023-03-14T05:24:58;19.00;64.70
60287;DHT22;46141;52.382;5.270;2023-03-14T05:27:24;19.00;64.80
60287;DHT22;46141;52.382;5.270;2023-03-14T05:29:50;19.00;64.80
60287;DHT22;46141;52.382;5.270;2023-03-14T05:32:15;19.00;64.80
60287;DHT22;46141;52.382;5.270;2023-03-14T05:34:41;18.90;64.80
60287;DHT22;46141;52.382;5.270;2023-03-14T05:37:06;18.90;64.90
60287;DHT22;46141;52.382;5.270;2023-03-14T05:39:32;18.90;64.90
60287;DHT22;46141;52.382;5.270;2023-03-14T05:41:58;18.90;64.80
60287;DHT22;46141;52.382;5.270;2023-03-14T05:44:24;18.80;64.90
60287;DHT22;46141;52.382;5.270;2023-03-14T05:46:49;18.90;65.00
60287;DHT22;46141;52.382;5.270;2023-03-14T05:49:15;18.80;64.90
60287;DHT22;46141;52.382;5.270;2023-03-14T05:51:40;18.80;64.90
60287;DHT22;46141;52.382;5.270;2023-03-14T05:54:06;18.80;65.00
60287;DHT22;46141;52.382;5.270;2023-03-14T05:56:32;18.80;64.90
60287;DHT22;46141;52.382;5.270;2023-03-14T05:58:58;18.80;64.90
60287;DHT22;46141;52.382;5.270;2023-03-14T06:01:23;18.80;64.90
60287;DHT22;46141;52.382;5.270;2023-03-14T06:03:49;18.80;64.90
60287;DHT22;46141;52.382;5.270;2023-03-14T06:06:15;18.80;65.00
60287;DHT22;46141;52.382;5.270;2023-03-14T06:08:42;18.80;65.00
60287;DHT22;46141;52.382;5.270;2023-03-14T06:11:07;18.70;64.90
60287;DHT22;46141;52.382;5.270;2023-03-14T06:13:33;18.70;64.90
60287;DHT22;46141;52.382;5.270;2023-03-14T06:15:59;18.70;64.90
60287;DHT22;46141;52.382;5.270;2023-03-14T06:18:25;18.70;64.90
60287;DHT22;46141;52.382;5.270;2023-03-14T06:20:54;18.70;65.00
60287;DHT22;46141;52.382;5.270;2023-03-14T06:23:21;18.70;65.00
60287;DHT22;46141;52.382;5.270;2023-03-14T06:25:47;18.70;65.00
60287;DHT22;46141;52.382;5.270;2023-03-14T06:28:13;18.70;65.00
60287;DHT22;46141;52.382;5.270;2023-03-14T06:30:38;18.70;65.10
60287;DHT22;46141;52.382;5.270;2023-03-14T06:33:04;18.70;65.30
60287;DHT22;46141;52.382;5.270;2023-03-14T06:35:30;18.70;65.30
60287;DHT22;46141;52.382;5.270;2023-03-14T06:37:55;18.70;65.30
60287;DHT22;46141;52.382;5.270;2023-03-14T06:40:21;18.60;65.30
60287;DHT22;46141;52.382;5.270;2023-03-14T06:42:47;18.70;65.40
60287;DHT22;46141;52.382;5.270;2023-03-14T06:45:14;18.60;65.40
60287;DHT22;46141;52.382;5.270;2023-03-14T06:47:39;18.60;66.00
60287;DHT22;46141;52.382;5.270;2023-03-14T06:50:07;18.60;65.10
60287;DHT22;46141;52.382;5.270;2023-03-14T06:52:32;18.50;65.00
60287;DHT22;46141;52.382;5.270;2023-03-14T06:54:58;18.50;65.00
60287;DHT22;46141;52.382;5.270;2023-03-14T06:57:24;18.50;65.60
60287;DHT22;46141;52.382;5.270;2023-03-14T06:59:50;18.50;66.10
60287;DHT22;46141;52.382;5.270;2023-03-14T07:02:15;18.50;65.80
60287;DHT22;46141;52.382;5.270;2023-03-14T07:04:41;18.50;66.00
60287;DHT22;46141;52.382;5.270;2023-03-14T07:07:08;18.50;66.30
60287;DHT22;46141;52.382;5.270;2023-03-14T07:09:34;18.50;66.20
60287;DHT22;46141;52.382;5.270;2023-03-14T07:12:00;18.50;66.10
60287;DHT22;46141;52.382;5.270;2023-03-14T07:14:26;18.60;66.10
60287;DHT22;46141;52.382;5.270;2023-03-14T07:16:52;18.60;66.00
60287;DHT22;46141;52.382;5.270;2023-03-14T07:19:18;18.50;66.20
60287;DHT22;46141;52.382;5.270;2023-03-14T07:21:43;18.50;66.10
60287;DHT22;46141;52.382;5.270;2023-03-14T07:24:09;18.50;66.30
60287;DHT22;46141;52.382;5.270;2023-03-14T07:26:35;18.50;66.00
60287;DHT22;46141;52.382;5.270;2023-03-14T07:29:01;18.60;66.10
60287;DHT22;46141;52.382;5.270;2023-03-14T07:31:29;18.50;66.20
60287;DHT22;46141;52.382;5.270;2023-03-14T07:33:54;18.50;66.30
60287;DHT22;46141;52.382;5.270;2023-03-14T07:36:20;18.60;66.30
60287;DHT22;46141;52.382;5.270;2023-03-14T07:38:47;18.50;66.00
60287;DHT22;46141;52.382;5.270;2023-03-14T07:41:13;18.50;65.90
60287;DHT22;46141;52.382;5.270;2023-03-14T07:43:39;18.50;66.00
60287;DHT22;46141;52.382;5.270;2023-03-14T07:46:05;18.50;66.00
60287;DHT22;46141;52.382;5.270;2023-03-14T07:48:31;18.40;66.00
60287;DHT22;46141;52.382;5.270;2023-03-14T07:50:57;18.50;66.10
60287;DHT22;46141;52.382;5.270;2023-03-14T07:53:23;18.50;66.20
60287;DHT22;46141;52.382;5.270;2023-03-14T07:55:52;18.40;65.80
60287;DHT22;46141;52.382;5.270;2023-03-14T07:58:19;18.40;65.70
60287;DHT22;46141;52.382;5.270;2023-03-14T08:00:45;18.30;66.10
60287;DHT22;46141;52.382;5.270;2023-03-14T08:03:10;18.30;66.40
60287;DHT22;46141;52.382;5.270;2023-03-14T08:05:37;18.40;66.40
60287;DHT22;46141;52.382;5.270;2023-03-14T08:08:04;18.40;66.40
60287;DHT22;46141;52.382;5.270;2023-03-14T08:10:31;18.40;66.60
60287;DHT22;46141;52.382;5.270;2023-03-14T08:12:59;18.40;66.60
60287;DHT22;46141;52.382;5.270;2023-03-14T08:15:26;18.40;66.50
60287;DHT22;46141;52.382;5.270;2023-03-14T08:17:53;18.40;66.50
60287;DHT22;46141;52.382;5.270;2023-03-14T08:20:21;18.40;66.60
60287;DHT22;46141;52.382;5.270;2023-03-14T08:22:47;18.40;66.50
60287;DHT22;46141;52.382;5.270;2023-03-14T08:25:13;18.40;66.40
60287;DHT22;46141;52.382;5.270;2023-03-14T08:27:39;18.40;66.40
60287;DHT22;46141;52.382;5.270;2023-03-14T08:30:10;18.40;66.40
60287;DHT22;46141;52.382;5.270;2023-03-14T08:32:36;18.40;66.40
60287;DHT22;46141;52.382;5.270;2023-03-14T08:35:02;18.40;66.40
60287;DHT22;46141;52.382;5.270;2023-03-14T08:37:28;18.40;66.50
60287;DHT22;46141;52.382;5.270;2023-03-14T08:39:53;18.40;66.60
60287;DHT22;46141;52.382;5.270;2023-03-14T08:42:19;18.40;66.40
60287;DHT22;46141;52.382;5.270;2023-03-14T08:44:45;18.40;66.40
60287;DHT22;46141;52.382;5.270;2023-03-14T08:47:10;18.40;66.40
60287;DHT22;46141;52.382;5.270;2023-03-14T08:49:36;18.40;66.40
60287;DHT22;46141;52.382;5.270;2023-03-14T08:52:03;18.40;66.40
60287;DHT22;46141;52.382;5.270;2023-03-14T08:54:30;18.40;66.40
60287;DHT22;46141;52.382;5.270;2023-03-14T08:56:56;18.40;66.30
60287;DHT22;46141;52.382;5.270;2023-03-14T08:59:22;18.40;66.30
60287;DHT22;46141;52.382;5.270;2023-03-14T09:01:48;18.30;66.30
60287;DHT22;46141;52.382;5.270;2023-03-14T09:04:14;18.40;66.30
60287;DHT22;46141;52.382;5.270;2023-03-14T09:06:40;18.40;66.20
60287;DHT22;46141;52.382;5.270;2023-03-14T09:09:05;18.40;66.20
60287;DHT22;46141;52.382;5.270;2023-03-14T09:11:32;18.40;66.20
60287;DHT22;46141;52.382;5.270;2023-03-14T09:13:57;18.30;66.30
60287;DHT22;46141;52.382;5.270;2023-03-14T09:16:23;18.30;66.30
60287;DHT22;46141;52.382;5.270;2023-03-14T09:18:49;18.30;66.20
60287;DHT22;46141;52.382;5.270;2023-03-14T09:21:15;18.30;66.20
60287;DHT22;46141;52.382;5.270;2023-03-14T09:23:41;18.30;66.30
60287;DHT22;46141;52.382;5.270;2023-03-14T09:26:07;18.30;66.30
60287;DHT22;46141;52.382;5.270;2023-03-14T09:28:33;18.30;66.30
60287;DHT22;46141;52.382;5.270;2023-03-14T09:31:08;18.30;66.30
60287;DHT22;46141;52.382;5.270;2023-03-14T09:33:35;18.30;66.20
60287;DHT22;46141;52.382;5.270;2023-03-14T09:36:01;18.30;66.20
60287;DHT22;46141;52.382;5.270;2023-03-14T09:38:27;18.30;66.20
60287;DHT22;46141;52.382;5.270;2023-03-14T09:40:54;18.30;66.20
60287;DHT22;46141;52.382;5.270;2023-03-14T09:43:22;18.30;66.20
60287;DHT22;46141;52.382;5.270;2023-03-14T09:45:51;18.30;66.10
60287;DHT22;46141;52.382;5.270;2023-03-14T09:48:22;18.30;66.20
60287;DHT22;46141;52.382;5.270;2023-03-14T09:50:54;18.30;66.10
60287;DHT22;46141;52.382;5.270;2023-03-14T09:53:47;18.30;66.10
60287;DHT22;46141;52.382;5.270;2023-03-14T09:56:24;18.30;66.20
60287;DHT22;46141;52.382;5.270;2023-03-14T09:59:05;18.30;66.20
60287;DHT22;46141;52.382;5.270;2023-03-14T10:01:36;18.30;66.20
60287;DHT22;46141;52.382;5.270;2023-03-14T10:04:15;18.30;66.20
60287;DHT22;46141;52.382;5.270;2023-03-14T10:06:44;18.30;66.10
60287;DHT22;46141;52.382;5.270;2023-03-14T10:09:23;18.30;66.10
60287;DHT22;46141;52.382;5.270;2023-03-14T10:11:57;18.30;66.20
60287;DHT22;46141;52.382;5.270;2023-03-14T10:14:37;18.30;66.20
60287;DHT22;46141;52.382;5.270;2023-03-14T10:17:09;18.20;66.10
60287;DHT22;46141;52.382;5.270;2023-03-14T10:19:36;18.20;66.20
60287;DHT22;46141;52.382;5.270;2023-03-14T10:22:04;18.20;66.30
60287;DHT22;46141;52.382;5.270;2023-03-14T10:24:34;18.20;66.30
60287;DHT22;46141;52.382;5.270;2023-03-14T10:27:02;18.20;66.30
60287;DHT22;46141;52.382;5.270;2023-03-14T10:29:30;18.20;66.20
60287;DHT22;46141;52.382;5.270;2023-03-14T10:32:04;18.20;66.20
60287;DHT22;46141;52.382;5.270;2023-03-14T10:34:38;18.20;66.20
60287;DHT22;46141;52.382;5.270;2023-03-14T10:39:49;18.20;66.10
60287;DHT22;46141;52.382;5.270;2023-03-14T10:44:55;18.20;66.10
60287;DHT22;46141;52.382;5.270;2023-03-14T10:47:24;18.20;66.10
60287;DHT22;46141;52.382;5.270;2023-03-14T10:49:50;18.20;65.90
60287;DHT22;46141;52.382;5.270;2023-03-14T10:52:28;18.20;66.00
60287;DHT22;46141;52.382;5.270;2023-03-14T10:55:01;18.20;66.30
60287;DHT22;46141;52.382;5.270;2023-03-14T10:57:27;18.20;66.20
60287;DHT22;46141;52.382;5.270;2023-03-14T10:59:55;18.20;66.30
60287;DHT22;46141;52.382;5.270;2023-03-14T11:08:06;18.20;66.90
60287;DHT22;46141;52.382;5.270;2023-03-14T11:10:35;18.30;67.10
60287;DHT22;46141;52.382;5.270;2023-03-14T11:20:46;18.40;67.20
60287;DHT22;46141;52.382;5.270;2023-03-14T11:23:32;18.40;67.20
60287;DHT22;46141;52.382;5.270;2023-03-14T11:28:52;18.60;67.00
60287;DHT22;46141;52.382;5.270;2023-03-14T11:31:29;18.60;67.00
60287;DHT22;46141;52.382;5.270;2023-03-14T11:36:39;18.80;67.00
60287;DHT22;46141;52.382;5.270;2023-03-14T11:39:13;18.80;67.00
60287;DHT22;46141;52.382;5.270;2023-03-14T11:41:43;18.80;66.90
60287;DHT22;46141;52.382;5.270;2023-03-14T11:44:23;18.90;66.90
60287;DHT22;46141;52.382;5.270;2023-03-14T11:46:55;19.00;66.90
60287;DHT22;46141;52.382;5.270;2023-03-14T11:51:59;19.00;66.90
60287;DHT22;46141;52.382;5.270;2023-03-14T11:54:43;19.10;66.80
60287;DHT22;46141;52.382;5.270;2023-03-14T11:57:22;19.10;66.80
60287;DHT22;46141;52.382;5.270;2023-03-14T11:59:52;19.20;66.70
60287;DHT22;46141;52.382;5.270;2023-03-14T12:10:26;19.50;66.60
60287;DHT22;46141;52.382;5.270;2023-03-14T12:12:53;19.60;66.50
60287;DHT22;46141;52.382;5.270;2023-03-14T12:15:21;19.60;66.40
60287;DHT22;46141;52.382;5.270;2023-03-14T12:17:54;19.60;66.40
60287;DHT22;46141;52.382;5.270;2023-03-14T12:20:23;19.70;66.40
60287;DHT22;46141;52.382;5.270;2023-03-14T12:22:53;19.70;66.30
60287;DHT22;46141;52.382;5.270;2023-03-14T12:25:23;19.70;66.30
60287;DHT22;46141;52.382;5.270;2023-03-14T12:35:50;19.80;66.20
60287;DHT22;46141;52.382;5.270;2023-03-14T12:41:14;19.90;66.30
60287;DHT22;46141;52.382;5.270;2023-03-14T12:43:41;19.90;66.10
60287;DHT22;46141;52.382;5.270;2023-03-14T12:46:26;20.00;66.10
60287;DHT22;46141;52.382;5.270;2023-03-14T12:49:08;20.10;66.10
60287;DHT22;46141;52.382;5.270;2023-03-14T12:51:39;20.20;65.90
60287;DHT22;46141;52.382;5.270;2023-03-14T12:59:22;20.40;65.50
60287;DHT22;46141;52.382;5.270;2023-03-14T13:02:14;20.50;65.50
60287;DHT22;46141;52.382;5.270;2023-03-14T13:04:59;20.60;65.50
60287;DHT22;46141;52.382;5.270;2023-03-14T13:12:41;20.70;65.20
60287;DHT22;46141;52.382;5.270;2023-03-14T13:15:18;20.60;65.20
60287;DHT22;46141;52.382;5.270;2023-03-14T13:17:46;20.70;65.30
60287;DHT22;46141;52.382;5.270;2023-03-14T13:20:28;20.70;65.20
60287;DHT22;46141;52.382;5.270;2023-03-14T13:22:55;20.80;65.20
60287;DHT22;46141;52.382;5.270;2023-03-14T13:25:20;20.80;65.10
60287;DHT22;46141;52.382;5.270;2023-03-14T13:27:49;20.90;65.00
60287;DHT22;46141;52.382;5.270;2023-03-14T13:30:20;20.90;64.90
60287;DHT22;46141;52.382;5.270;2023-03-14T13:32:48;21.00;64.90
60287;DHT22;46141;52.382;5.270;2023-03-14T13:35:29;21.10;64.60
60287;DHT22;46141;52.382;5.270;2023-03-14T13:38:02;21.20;64.60
60287;DHT22;46141;52.382;5.270;2023-03-14T13:40:33;21.10;64.70
60287;DHT22;46141;52.382;5.270;2023-03-14T13:43:21;21.00;64.90
60287;DHT22;46141;52.382;5.270;2023-03-14T13:48:22;20.90;64.90
60287;DHT22;46141;52.382;5.270;2023-03-14T13:51:03;20.90;65.10
60287;DHT22;46141;52.382;5.270;2023-03-14T13:53:30;20.90;65.00
60287;DHT22;46141;52.382;5.270;2023-03-14T13:55:56;20.90;65.10
60287;DHT22;46141;52.382;5.270;2023-03-14T13:58:29;20.80;65.10
60287;DHT22;46141;52.382;5.270;2023-03-14T14:03:37;20.90;64.90
60287;DHT22;46141;52.382;5.270;2023-03-14T14:06:50;21.00;64.80
60287;DHT22;46141;52.382;5.270;2023-03-14T14:08:59;21.00;64.70
60287;DHT22;46141;52.382;5.270;2023-03-14T14:14:02;21.00;64.70
60287;DHT22;46141;52.382;5.270;2023-03-14T14:16:30;21.00;64.70
60287;DHT22;46141;52.382;5.270;2023-03-14T14:18:58;21.10;64.60
60287;DHT22;46141;52.382;5.270;2023-03-14T14:21:25;21.10;64.70
60287;DHT22;46141;52.382;5.270;2023-03-14T14:23:51;21.10;64.60
60287;DHT22;46141;52.382;5.270;2023-03-14T14:26:19;21.10;64.50
60287;DHT22;46141;52.382;5.270;2023-03-14T14:28:46;21.20;64.50
60287;DHT22;46141;52.382;5.270;2023-03-14T14:33:52;21.10;64.50
60287;DHT22;46141;52.382;5.270;2023-03-14T14:36:28;21.10;64.60
60287;DHT22;46141;52.382;5.270;2023-03-14T14:39:18;21.00;64.40
60287;DHT22;46141;52.382;5.270;2023-03-14T14:41:48;21.00;64.50
60287;DHT22;46141;52.382;5.270;2023-03-14T14:44:18;21.00;64.40
60287;DHT22;46141;52.382;5.270;2023-03-14T14:46:46;21.00;65.20
60287;DHT22;46141;52.382;5.270;2023-03-14T14:49:19;20.90;64.40
60287;DHT22;46141;52.382;5.270;2023-03-14T14:51:48;20.90;64.40
60287;DHT22;46141;52.382;5.270;2023-03-14T14:54:17;20.90;64.30
60287;DHT22;46141;52.382;5.270;2023-03-14T14:56:49;20.90;64.40
60287;DHT22;46141;52.382;5.270;2023-03-14T14:59:24;20.80;64.40
60287;DHT22;46141;52.382;5.270;2023-03-14T15:01:59;20.80;64.60
60287;DHT22;46141;52.382;5.270;2023-03-14T15:04:26;20.70;64.70
60287;DHT22;46141;52.382;5.270;2023-03-14T15:06:52;20.80;64.40
60287;DHT22;46141;52.382;5.270;2023-03-14T15:09:19;20.80;64.30
60287;DHT22;46141;52.382;5.270;2023-03-14T15:11:46;20.80;64.40
60287;DHT22;46141;52.382;5.270;2023-03-14T15:14:12;20.80;64.30
60287;DHT22;46141;52.382;5.270;2023-03-14T15:16:39;20.70;64.80
60287;DHT22;46141;52.382;5.270;2023-03-14T15:19:26;20.70;64.30
60287;DHT22;46141;52.382;5.270;2023-03-14T15:21:53;20.70;64.30
60287;DHT22;46141;52.382;5.270;2023-03-14T15:24:19;20.70;64.30
60287;DHT22;46141;52.382;5.270;2023-03-14T15:26:44;20.70;64.10
60287;DHT22;46141;52.382;5.270;2023-03-14T15:29:11;20.80;63.90
60287;DHT22;46141;52.382;5.270;2023-03-14T15:31:39;20.80;63.80
60287;DHT22;46141;52.382;5.270;2023-03-14T15:34:05;20.80;63.70
60287;DHT22;46141;52.382;5.270;2023-03-14T15:36:33;20.80;63.70
60287;DHT22;46141;52.382;5.270;2023-03-14T15:38:59;20.80;63.70
60287;DHT22;46141;52.382;5.270;2023-03-14T15:41:26;20.70;63.70
60287;DHT22;46141;52.382;5.270;2023-03-14T15:43:53;20.70;63.80
60287;DHT22;46141;52.382;5.270;2023-03-14T15:46:19;20.70;63.90
60287;DHT22;46141;52.382;5.270;2023-03-14T15:48:45;20.60;64.00
60287;DHT22;46141;52.382;5.270;2023-03-14T15:51:11;20.60;64.20
60287;DHT22;46141;52.382;5.270;2023-03-14T15:53:37;20.60;64.30
60287;DHT22;46141;52.382;5.270;2023-03-14T15:56:04;20.50;64.20
60287;DHT22;46141;52.382;5.270;2023-03-14T15:58:30;20.50;64.20
60287;DHT22;46141;52.382;5.270;2023-03-14T16:01:02;20.50;64.30
60287;DHT22;46141;52.382;5.270;2023-03-14T16:03:29;20.40;64.30
60287;DHT22;46141;52.382;5.270;2023-03-14T16:05:55;20.40;64.30
60287;DHT22;46141;52.382;5.270;2023-03-14T16:08:22;20.40;64.40
60287;DHT22;46141;52.382;5.270;2023-03-14T16:10:48;20.40;64.50
60287;DHT22;46141;52.382;5.270;2023-03-14T16:13:14;20.30;64.30
60287;DHT22;46141;52.382;5.270;2023-03-14T16:15:40;20.40;64.30
60287;DHT22;46141;52.382;5.270;2023-03-14T16:18:06;20.40;64.20
60287;DHT22;46141;52.382;5.270;2023-03-14T16:20:31;20.40;64.20
60287;DHT22;46141;52.382;5.270;2023-03-14T16:22:57;20.30;64.10
60287;DHT22;46141;52.382;5.270;2023-03-14T16:25:23;20.40;64.20
60287;DHT22;46141;52.382;5.270;2023-03-14T16:27:49;20.40;64.30
60287;DHT22;46141;52.382;5.270;2023-03-14T16:30:15;20.40;64.30
60287;DHT22;46141;52.382;5.270;2023-03-14T16:32:41;20.40;64.10
60287;DHT22;46141;52.382;5.270;2023-03-14T16:35:07;20.40;64.10
60287;DHT22;46141;52.382;5.270;2023-03-14T16:37:32;20.40;64.10
60287;DHT22;46141;52.382;5.270;2023-03-14T16:39:58;20.40;64.20
60287;DHT22;46141;52.382;5.270;2023-03-14T16:42:24;20.40;64.00
60287;DHT22;46141;52.382;5.270;2023-03-14T16:44:49;20.40;64.10
60287;DHT22;46141;52.382;5.270;2023-03-14T16:47:15;20.50;64.10
60287;DHT22;46141;52.382;5.270;2023-03-14T16:49:41;20.40;64.20
60287;DHT22;46141;52.382;5.270;2023-03-14T16:52:08;20.40;64.10
60287;DHT22;46141;52.382;5.270;2023-03-14T16:54:33;20.50;64.10